METAR Data
IDs: Format: Raw Decoded Include TAF

Data at: 0346 UTC 20 Oct 2018

PAAK 200256Z AUTO 27016G20KT 10SM BKN022 07/04 A2932 RMK AO2 SLP929 6//// T00720039 56003 PNO $
PAAK 200207Z AUTO 27018G22KT 10SM SCT024 07/04 A2931 RMK AO2 PNO $
PAAK 200156Z AUTO 27016G24KT 10SM BKN024 07/04 A2932 RMK AO2 SLP929 T00720039 PNO $
PAAK 200104Z AUTO 28019G23KT 8SM SCT012 OVC020 07/04 A2932 RMK AO2 PNO $
PAAK 200056Z AUTO 28018KT 6SM BR BKN012 OVC020 07/05 A2932 RMK AO2 RAB02E39 SLP931 T00720050 PNO $
PAAK 192325Z AUTO 28008KT 10SM SCT012 BKN024 OVC034 08/06 A2934 RMK AO2 PNO $
PAAK 190656Z AUTO 14005KT 10SM OVC042 06/04 A2982 RMK AO2 SLP099 T00560039
PAAK 190641Z AUTO 12006KT 10SM FEW022 SCT026 BKN042 06/04 A2982 RMK AO2
PAAK 190556Z AUTO 11009KT 10SM BKN018 BKN025 OVC041 06/03 A2984 RMK AO2 SLP107 T00610033 10083 20061 56014
PAAK 190548Z AUTO 12008KT 10SM BKN020 BKN027 BKN041 06/03 A2985 RMK AO2
PAAK 190535Z AUTO 13006KT 10SM FEW016 SCT027 BKN042 06/03 A2985 RMK AO2
PAAK 190456Z AUTO 11008KT 10SM FEW016 BKN026 OVC110 06/03 A2985 RMK AO2 SLP111 T00610033
PAAK 190452Z AUTO 10007KT 10SM FEW018 BKN026 OVC110 06/03 A2986 RMK AO2
PAAK 190356Z AUTO 16004KT 10SM BKN040 OVC110 06/02 A2988 RMK AO2 SLP121 T00610022
PAAK 190256Z AUTO 13005KT 10SM CLR 07/01 A2989 RMK AO2 SLP124 T00720011 56030
PAAK 190156Z AUTO 19008KT 10SM CLR 08/01 A2992 RMK AO2 SLP133 T00780006
PAAK 190106Z AUTO 19008KT 10SM SCT029 OVC037 08/02 A2994 RMK AO2
PAAK 190056Z AUTO 10004KT 10SM BKN029 OVC035 08/02 A2995 RMK AO2 SLP143 T00780017
PAAK 190030Z AUTO 09007KT 10SM BKN027 OVC039 08/02 A2996 RMK AO2
PAAK 182331Z AUTO 00000KT 10SM BKN031 07/01 A3000 RMK AO2
PAAK 182256Z AUTO 28004KT 10SM BKN029 OVC033 07/01 A3001 RMK AO2 SLP165 T00720011
PAAK 182236Z AUTO 26007KT 10SM BKN029 07/02 A3002 RMK AO2
PAAK 182156Z AUTO 28004KT 10SM CLR 07/01 A3004 RMK AO2 SLP172 T00670011
PAAK 182056Z AUTO 31005KT 10SM FEW022 07/02 A3006 RMK AO2 SLP180 T00670017 58005
PAAK 181856Z AUTO 00000KT 10SM CLR 03/01 A3007 RMK AO2 SLP184 T00280011
PAAK 181756Z AUTO 00000KT 10SM FEW035 03/01 A3008 RMK AO2 SLP186 60000 T00280006 10061 20028 56008
PAAK 181656Z AUTO 32005KT 10SM BKN033 BKN040 04/01 A3008 RMK AO2 SLP189 T00440011
PAAK 181611Z AUTO 27009KT 10SM SCT024 04/02 A3009 RMK AO2
PAAK 181556Z AUTO 27008KT 10SM BKN026 04/02 A3009 RMK AO2 RAE07B33E45 SLP190 P0000 T00440017